Time;durP1;ratioP1;P1;durP2;ratioP2;P2;SDS_P1;SDS_P2;PMS_P1;PMS_P2;Temp;Humidity;BMP_temperature;BMP_pressure;BME280_temperature;BME280_humidity;BME280_pressure;Samples;Min_cycle;Max_cycle;Signal;HPM_P1;HPM_P2
2023/07/20 00:01:46;;;;;;;5.43;3.88;;;22.30;63.80;;;;;;4974780;28;20103;-59
2023/07/20 00:04:13;;;;;;;5.35;3.65;;;22.30;63.80;;;;;;4974947;28;20268;-59
2023/07/20 00:06:40;;;;;;;4.93;3.88;;;22.30;63.80;;;;;;4974630;28;20082;-59
2023/07/20 00:09:07;;;;;;;4.68;3.55;;;22.20;63.80;;;;;;4974924;28;20027;-59
2023/07/20 00:11:36;;;;;;;4.60;3.72;;;22.30;63.90;;;;;;4974700;28;20019;-59
2023/07/20 00:14:02;;;;;;;4.85;3.72;;;22.30;64.00;;;;;;4973831;28;20027;-59
2023/07/20 00:16:27;;;;;;;4.18;3.42;;;22.20;64.10;;;;;;4974471;28;20033;-58
2023/07/20 00:18:53;;;;;;;5.10;3.80;;;22.30;64.20;;;;;;4974506;28;20368;-59
2023/07/20 00:21:19;;;;;;;4.88;3.80;;;22.20;64.40;;;;;;4974506;28;20027;-59
2023/07/20 00:23:45;;;;;;;5.68;3.65;;;22.30;64.50;;;;;;4974610;28;20023;-59
2023/07/20 00:26:11;;;;;;;5.60;3.63;;;22.30;64.60;;;;;;4974272;28;20057;-58
2023/07/20 00:28:36;;;;;;;5.47;3.60;;;22.20;64.60;;;;;;4974443;28;20129;-58
2023/07/20 00:31:02;;;;;;;4.53;3.50;;;22.20;64.50;;;;;;4974330;28;20062;-58
2023/07/20 00:33:28;;;;;;;6.45;4.18;;;22.20;65.00;;;;;;4974519;28;20041;-59
2023/07/20 00:35:54;;;;;;;4.32;3.55;;;22.20;64.20;;;;;;4974848;28;20442;-59
2023/07/20 00:38:20;;;;;;;5.35;3.83;;;22.30;64.40;;;;;;4974264;28;20543;-58
2023/07/20 00:40:46;;;;;;;3.90;3.30;;;22.20;64.40;;;;;;4974168;28;20118;-59
2023/07/20 00:43:12;;;;;;;4.75;3.67;;;22.20;64.50;;;;;;4974060;28;20534;-58
2023/07/20 00:45:38;;;;;;;5.80;3.72;;;22.20;64.50;;;;;;4973459;28;20029;-59
2023/07/20 00:48:06;;;;;;;4.90;3.40;;;22.20;64.70;;;;;;4973952;28;20039;-58
2023/07/20 00:50:32;;;;;;;4.63;3.58;;;22.10;64.80;;;;;;4974088;28;20447;-59
2023/07/20 00:52:58;;;;;;;5.57;3.47;;;22.10;64.80;;;;;;4974214;28;20439;-59
2023/07/20 00:55:25;;;;;;;5.55;3.72;;;22.10;64.90;;;;;;4974508;28;20106;-59
2023/07/20 00:57:51;;;;;;;5.05;3.70;;;22.10;65.00;;;;;;4973838;28;20039;-59
2023/07/20 01:00:17;;;;;;;4.72;3.53;;;22.00;65.10;;;;;;4973912;28;20078;-59
2023/07/20 01:02:43;;;;;;;5.15;3.60;;;22.00;65.10;;;;;;4973742;28;20062;-59
2023/07/20 01:05:09;;;;;;;5.43;3.63;;;22.00;65.20;;;;;;4974143;28;20037;-59
2023/07/20 01:07:43;;;;;;;5.28;3.70;;;21.90;65.20;;;;;;4973966;28;20031;-58
2023/07/20 01:10:28;;;;;;;3.90;3.40;;;21.90;65.40;;;;;;4974199;28;20110;-59
2023/07/20 01:12:55;;;;;;;3.97;3.42;;;21.90;65.90;;;;;;4973635;28;20114;-59
2023/07/20 01:15:21;;;;;;;6.18;3.97;;;21.80;65.40;;;;;;4973855;28;20030;-59
2023/07/20 01:17:47;;;;;;;4.65;3.53;;;21.80;65.50;;;;;;4973324;28;20093;-58
2023/07/20 01:20:20;;;;;;;8.52;3.72;;;21.80;65.60;;;;;;4973418;28;20023;-58
2023/07/20 01:23:19;;;;;;;5.10;3.50;;;21.80;66.40;;;;;;4973287;28;20138;-59
2023/07/20 01:25:54;;;;;;;4.18;3.38;;;21.70;65.70;;;;;;4953348;28;20078;-58
2023/07/20 01:28:51;;;;;;;4.78;3.40;;;21.70;65.90;;;;;;4953961;29;20122;-59
2023/07/20 01:31:31;;;;;;;4.20;3.45;;;21.70;65.90;;;;;;4953949;29;20035;-59
2023/07/20 01:34:00;;;;;;;4.13;3.33;;;21.60;66.00;;;;;;4953874;29;20047;-59
2023/07/20 01:36:29;;;;;;;3.72;3.17;;;21.60;65.90;;;;;;4953721;29;20031;-59
2023/07/20 01:38:55;;;;;;;4.35;3.30;;;21.60;65.90;;;;;;4953763;29;20039;-59
2023/07/20 01:41:21;;;;;;;3.83;2.88;;;21.50;65.90;;;;;;4953724;29;20023;-59
2023/07/20 01:43:47;;;;;;;3.45;3.05;;;21.50;65.80;;;;;;4953941;29;20027;-59
2023/07/20 01:46:13;;;;;;;4.88;3.30;;;21.50;65.50;;;;;;4953711;29;20038;-59
2023/07/20 01:48:39;;;;;;;3.92;3.00;;;21.50;65.30;;;;;;4953566;29;20483;-59
2023/07/20 01:51:04;;;;;;;5.30;3.20;;;21.50;65.30;;;;;;4953876;29;20407;-59
2023/07/20 01:53:30;;;;;;;3.88;2.92;;;21.50;65.20;;;;;;4953780;29;20435;-59
2023/07/20 01:55:56;;;;;;;6.32;2.92;;;21.50;65.20;;;;;;4953712;29;20125;-58
2023/07/20 01:58:22;;;;;;;3.20;2.83;;;21.50;65.10;;;;;;4953773;29;20043;-59
2023/07/20 02:00:48;;;;;;;3.78;2.78;;;21.50;65.20;;;;;;4953385;29;20024;-58
2023/07/20 02:03:14;;;;;;;2.85;2.55;;;21.50;65.50;;;;;;4953368;29;20062;-59
2023/07/20 02:05:39;;;;;;;3.50;2.67;;;21.50;65.90;;;;;;4953324;29;20110;-59
2023/07/20 02:08:05;;;;;;;2.60;2.40;;;21.50;66.50;;;;;;4953303;29;20027;-59
2023/07/20 02:10:30;;;;;;;3.63;2.80;;;21.50;67.10;;;;;;4953482;29;20031;-59
2023/07/20 02:12:56;;;;;;;3.25;2.80;;;21.50;67.50;;;;;;4953233;29;20050;-58
2023/07/20 02:15:22;;;;;;;3.05;2.60;;;21.50;68.00;;;;;;4953209;29;20444;-59
2023/07/20 02:17:48;;;;;;;3.05;2.63;;;21.60;68.40;;;;;;4953358;29;20031;-59
2023/07/20 02:20:14;;;;;;;4.22;3.03;;;21.60;69.00;;;;;;4953148;29;20441;-59
2023/07/20 02:22:40;;;;;;;3.53;2.72;;;21.70;69.40;;;;;;4953240;29;20482;-59
2023/07/20 02:25:07;;;;;;;3.80;2.97;;;21.70;69.60;;;;;;4953366;29;20027;-59
2023/07/20 02:27:36;;;;;;;3.97;2.75;;;21.70;69.90;;;;;;4953343;29;20031;-59
2023/07/20 02:30:03;;;;;;;5.38;2.60;;;21.80;70.00;;;;;;4953220;29;20047;-59
2023/07/20 02:32:29;;;;;;;3.15;2.58;;;21.80;70.00;;;;;;4953282;29;20484;-59
2023/07/20 02:34:56;;;;;;;3.22;2.92;;;21.80;70.10;;;;;;4953297;29;20058;-59
2023/07/20 02:37:22;;;;;;;2.70;2.30;;;21.90;70.00;;;;;;4953872;28;20031;-58
2023/07/20 02:39:47;;;;;;;3.22;2.90;;;21.90;69.80;;;;;;4956956;29;20035;-59
2023/07/20 02:42:14;;;;;;;4.63;2.65;;;21.90;69.60;;;;;;4956984;29;20019;-59
2023/07/20 02:44:39;;;;;;;6.43;2.70;;;22.00;69.50;;;;;;4957229;29;20086;-59
2023/07/20 02:47:05;;;;;;;3.33;2.70;;;22.00;69.30;;;;;;4957003;29;20476;-59
2023/07/20 02:49:31;;;;;;;4.55;3.20;;;22.10;69.20;;;;;;4955550;29;20034;-59
2023/07/20 02:51:56;;;;;;;3.75;2.92;;;22.10;69.20;;;;;;4956895;29;20031;-59
2023/07/20 02:54:22;;;;;;;4.47;2.70;;;22.20;69.10;;;;;;4956742;29;20061;-59
2023/07/20 02:56:48;;;;;;;2.70;2.50;;;22.20;69.20;;;;;;4956448;29;20031;-59
2023/07/20 02:59:14;;;;;;;2.88;2.58;;;22.20;69.00;;;;;;4956654;29;20019;-58
2023/07/20 03:01:42;;;;;;;3.45;2.70;;;22.30;68.90;;;;;;4956894;29;20023;-59
2023/07/20 03:04:09;;;;;;;2.90;2.55;;;22.30;68.80;;;;;;4956784;29;20475;-59
2023/07/20 03:06:36;;;;;;;4.43;2.95;;;22.30;68.80;;;;;;4956750;29;20028;-59
2023/07/20 03:09:01;;;;;;;4.75;3.40;;;22.40;68.80;;;;;;4956779;29;20449;-59
2023/07/20 03:11:27;;;;;;;5.97;3.50;;;22.40;68.70;;;;;;4956376;29;20027;-59
2023/07/20 03:13:52;;;;;;;4.07;3.30;;;22.50;68.70;;;;;;4956678;29;20034;-59
2023/07/20 03:16:19;;;;;;;6.18;3.50;;;22.50;68.50;;;;;;4956266;29;20043;-59
2023/07/20 03:18:45;;;;;;;4.22;3.28;;;22.50;68.30;;;;;;4956404;29;20067;-59
2023/07/20 03:21:11;;;;;;;4.65;3.60;;;22.60;68.40;;;;;;4956473;29;20066;-58
2023/07/20 03:23:37;;;;;;;4.68;3.60;;;22.60;68.20;;;;;;4956432;29;20034;-59
2023/07/20 03:26:03;;;;;;;7.32;3.90;;;22.70;68.20;;;;;;4956148;29;20027;-59
2023/07/20 03:28:29;;;;;;;4.15;3.35;;;22.80;68.30;;;;;;4956339;29;20035;-59
2023/07/20 03:30:56;;;;;;;4.90;3.53;;;22.80;68.20;;;;;;4956002;29;20115;-59
2023/07/20 03:33:25;;;;;;;4.15;3.22;;;22.90;68.70;;;;;;4955346;29;20042;-59
2023/07/20 03:35:50;;;;;;;6.18;3.30;;;23.00;69.10;;;;;;4956050;29;20035;-59
2023/07/20 03:38:16;;;;;;;3.20;2.83;;;23.10;69.20;;;;;;4956080;29;20027;-59
2023/07/20 03:40:53;;;;;;;5.65;2.97;;;23.30;69.20;;;;;;4956172;29;20082;-59
2023/07/20 03:43:19;;;;;;;4.97;3.08;;;23.50;69.20;;;;;;4956251;29;20163;-59
2023/07/20 03:45:48;;;;;;;2.95;2.53;;;23.70;69.60;;;;;;4955938;29;20110;-59
2023/07/20 03:48:17;;;;;;;3.05;2.60;;;24.00;68.40;;;;;;4955837;28;20082;-61
2023/07/20 03:50:48;;;;;;;3.67;2.80;;;24.30;67.80;;;;;;4955382;29;20049;-61
2023/07/20 03:53:14;;;;;;;3.05;2.75;;;24.40;67.00;;;;;;4955648;29;20269;-60
2023/07/20 03:55:41;;;;;;;2.65;2.38;;;24.60;67.20;;;;;;4955834;29;20098;-60
2023/07/20 03:58:07;;;;;;;3.83;2.28;;;24.90;67.40;;;;;;4955361;29;20047;-61
2023/07/20 04:00:34;;;;;;;2.45;2.25;;;25.50;66.70;;;;;;4955595;29;20395;-61
2023/07/20 04:03:00;;;;;;;2.20;2.00;;;26.10;65.80;;;;;;4955389;29;20015;-60
2023/07/20 04:05:26;;;;;;;2.00;1.80;;;26.90;64.20;;;;;;4955066;29;20387;-59
2023/07/20 04:07:52;;;;;;;2.20;2.00;;;27.30;62.70;;;;;;4955513;29;20027;-61
2023/07/20 04:10:18;;;;;;;2.65;1.98;;;27.60;62.10;;;;;;4955710;29;20062;-60
2023/07/20 04:12:44;;;;;;;2.78;2.30;;;27.90;61.40;;;;;;4955436;29;20118;-60
2023/07/20 04:15:10;;;;;;;2.30;2.10;;;28.30;61.00;;;;;;4955564;29;20118;-60
2023/07/20 04:17:36;;;;;;;2.67;2.00;;;29.00;60.60;;;;;;4955500;29;20126;-61
2023/07/20 04:20:02;;;;;;;3.72;2.17;;;29.80;59.90;;;;;;4955703;29;20027;-61
2023/07/20 04:22:28;;;;;;;2.30;1.88;;;30.60;58.70;;;;;;4954911;29;20130;-60
2023/07/20 04:24:54;;;;;;;2.15;1.90;;;31.30;56.70;;;;;;4955351;29;20042;-61
2023/07/20 04:27:20;;;;;;;2.10;1.92;;;31.80;55.60;;;;;;4955021;29;20039;-60
2023/07/20 04:29:45;;;;;;;2.25;1.80;;;32.30;54.80;;;;;;4954988;29;20051;-61
2023/07/20 04:32:11;;;;;;;2.30;1.92;;;32.70;54.20;;;;;;4954910;29;20059;-60
2023/07/20 04:34:37;;;;;;;2.88;2.00;;;33.20;53.40;;;;;;4954128;29;20476;-59
2023/07/20 04:37:04;;;;;;;2.83;1.83;;;33.60;52.50;;;;;;4953197;29;20031;-59
2023/07/20 04:39:30;;;;;;;3.30;1.80;;;34.00;52.00;;;;;;4952930;29;20118;-60
2023/07/20 04:41:56;;;;;;;2.50;2.03;;;34.30;51.60;;;;;;4953116;29;20118;-60
2023/07/20 04:44:22;;;;;;;4.20;1.52;;;34.70;51.00;;;;;;4936463;29;20118;-60
2023/07/20 04:46:47;;;;;;;2.00;1.60;;;35.00;50.40;;;;;;4954694;29;20031;-60
2023/07/20 04:49:13;;;;;;;1.73;1.63;;;35.40;50.80;;;;;;4954612;29;20031;-60
2023/07/20 04:51:39;;;;;;;2.20;1.40;;;35.80;50.00;;;;;;4954826;29;20031;-60
2023/07/20 04:54:05;;;;;;;3.05;1.90;;;36.30;49.70;;;;;;4954660;29;20023;-58
2023/07/20 04:56:30;;;;;;;1.45;1.35;;;36.80;49.20;;;;;;4954321;29;20042;-59
2023/07/20 04:58:56;;;;;;;1.58;1.48;;;37.20;48.70;;;;;;4954769;29;20027;-59
2023/07/20 05:01:23;;;;;;;2.65;1.70;;;37.60;48.40;;;;;;4954469;28;20475;-59
2023/07/20 05:03:49;;;;;;;1.73;1.63;;;37.90;47.80;;;;;;4954437;29;20055;-60
2023/07/20 05:06:15;;;;;;;1.38;1.27;;;38.20;47.30;;;;;;4937117;29;20076;-60
2023/07/20 05:08:41;;;;;;;1.55;1.45;;;38.50;47.00;;;;;;4954360;29;20034;-60
2023/07/20 05:11:07;;;;;;;1.42;1.33;;;38.80;46.60;;;;;;4954181;29;20351;-59
2023/07/20 05:13:33;;;;;;;5.20;1.80;;;39.10;46.20;;;;;;4954406;29;20143;-59
2023/07/20 05:15:59;;;;;;;1.85;1.50;;;39.40;45.80;;;;;;4954119;29;20065;-59
2023/07/20 05:18:25;;;;;;;2.55;1.60;;;39.60;45.50;;;;;;4953938;29;20027;-60
2023/07/20 05:20:51;;;;;;;1.67;1.40;;;39.70;45.20;;;;;;4954112;29;20107;-59
2023/07/20 05:23:19;;;;;;;1.33;1.20;;;39.90;44.80;;;;;;4954049;29;20027;-59
2023/07/20 05:25:44;;;;;;;4.30;1.60;;;40.00;44.40;;;;;;4953807;29;20024;-59
2023/07/20 05:28:10;;;;;;;2.20;1.73;;;40.10;43.70;;;;;;4952644;29;20399;-59
2023/07/20 05:30:36;;;;;;;2.33;1.95;;;40.10;43.00;;;;;;4952170;29;20102;-59
2023/07/20 05:33:01;;;;;;;2.20;1.45;;;39.90;42.60;;;;;;4952802;29;20031;-59
2023/07/20 05:35:27;;;;;;;1.65;1.55;;;39.40;42.50;;;;;;4952799;29;20027;-59
2023/07/20 05:37:53;;;;;;;2.05;1.45;;;38.70;42.50;;;;;;4952152;29;20050;-59
2023/07/20 05:40:19;;;;;;;2.22;1.88;;;37.90;42.80;;;;;;4952740;29;20042;-59
2023/07/20 05:42:51;;;;;;;2.70;1.70;;;37.00;43.20;;;;;;4953196;29;20023;-59
2023/07/20 05:45:17;;;;;;;1.95;1.70;;;36.10;43.60;;;;;;4953676;29;20038;-59
2023/07/20 05:47:43;;;;;;;2.17;1.95;;;35.30;44.20;;;;;;4952009;29;20476;-58
2023/07/20 05:50:09;;;;;;;2.22;1.95;;;34.40;44.60;;;;;;4951741;29;20041;-59
2023/07/20 05:52:35;;;;;;;3.30;2.20;;;33.60;45.40;;;;;;4951659;29;20551;-59
2023/07/20 05:55:01;;;;;;;2.72;2.08;;;32.80;46.00;;;;;;4953045;29;20030;-59
2023/07/20 05:57:26;;;;;;;4.40;2.25;;;32.10;46.70;;;;;;4953284;29;20855;-59
2023/07/20 05:59:52;;;;;;;2.78;2.13;;;31.50;47.40;;;;;;4953452;29;20031;-58
2023/07/20 06:02:18;;;;;;;3.78;2.17;;;31.10;48.10;;;;;;4953792;29;20392;-58
2023/07/20 06:04:43;;;;;;;3.08;2.17;;;30.70;48.80;;;;;;4953658;29;20031;-59
2023/07/20 06:07:09;;;;;;;4.35;2.40;;;30.30;49.30;;;;;;4953292;29;20100;-59
2023/07/20 06:09:35;;;;;;;2.22;2.03;;;30.00;49.90;;;;;;4953290;29;20039;-60
2023/07/20 06:12:00;;;;;;;3.35;2.13;;;29.70;50.50;;;;;;4952622;28;20035;-58
2023/07/20 06:14:26;;;;;;;2.42;2.17;;;29.50;50.90;;;;;;4953149;29;20419;-59
2023/07/20 06:16:52;;;;;;;2.90;2.50;;;29.30;51.40;;;;;;4953256;29;20035;-58
2023/07/20 06:19:17;;;;;;;3.05;2.30;;;29.10;51.90;;;;;;4951908;29;20039;-59
2023/07/20 06:21:43;;;;;;;5.45;2.30;;;28.80;52.10;;;;;;4952066;29;20127;-59
2023/07/20 06:24:09;;;;;;;3.35;2.22;;;28.70;52.60;;;;;;4951733;29;20069;-59
2023/07/20 06:26:40;;;;;;;3.90;2.28;;;28.40;53.10;;;;;;4952968;29;20198;-58
2023/07/20 06:29:06;;;;;;;4.07;2.30;;;28.20;53.70;;;;;;4952195;29;20379;-59
2023/07/20 06:31:35;;;;;;;2.40;2.20;;;28.10;53.90;;;;;;4953087;29;20031;-58
2023/07/20 06:34:02;;;;;;;2.53;2.00;;;28.00;53.90;;;;;;4953064;29;20023;-58
2023/07/20 06:36:28;;;;;;;2.40;2.10;;;27.90;54.20;;;;;;4953066;29;20024;-58
2023/07/20 06:38:54;;;;;;;3.92;2.25;;;27.70;54.50;;;;;;4952886;29;20035;-58
2023/07/20 06:41:19;;;;;;;2.35;2.13;;;27.70;55.00;;;;;;4953148;29;20027;-59
2023/07/20 06:43:45;;;;;;;2.80;2.20;;;27.60;55.20;;;;;;4952786;29;20027;-58
2023/07/20 06:46:11;;;;;;;3.03;2.40;;;27.60;55.20;;;;;;4952194;29;20484;-59
2023/07/20 06:48:37;;;;;;;3.95;1.92;;;27.60;55.40;;;;;;4951718;29;20046;-59
2023/07/20 06:51:02;;;;;;;3.65;2.58;;;27.50;55.40;;;;;;4951889;29;20043;-59
2023/07/20 06:53:29;;;;;;;2.63;2.35;;;27.40;55.50;;;;;;4951362;29;20074;-58
2023/07/20 06:55:56;;;;;;;2.90;2.60;;;27.40;55.60;;;;;;4958719;28;20019;-58
2023/07/20 06:58:25;;;;;;;2.67;2.33;;;27.30;55.60;;;;;;4961861;28;20063;-58
2023/07/20 07:00:51;;;;;;;3.50;2.40;;;27.20;55.80;;;;;;4956179;28;20137;-59
2023/07/20 07:03:17;;;;;;;2.95;2.25;;;27.10;56.00;;;;;;4960152;28;20031;-58
2023/07/20 07:05:45;;;;;;;2.80;2.28;;;27.00;55.90;;;;;;4959240;28;20051;-61
2023/07/20 07:08:11;;;;;;;3.08;2.40;;;26.90;56.00;;;;;;4959057;28;20027;-58
2023/07/20 07:10:37;;;;;;;2.88;2.30;;;26.90;56.40;;;;;;4965088;28;20541;-58
2023/07/20 07:13:03;;;;;;;2.72;2.30;;;26.90;56.30;;;;;;4959195;28;20031;-59
2023/07/20 07:15:29;;;;;;;4.22;2.50;;;26.90;56.50;;;;;;4966449;28;20400;-60
2023/07/20 07:17:55;;;;;;;2.88;2.20;;;26.80;56.70;;;;;;4958745;28;20054;-58
2023/07/20 07:20:21;;;;;;;3.20;2.15;;;26.80;56.70;;;;;;4952474;28;20114;-57
2023/07/20 07:22:47;;;;;;;3.83;2.20;;;26.80;56.40;;;;;;4957906;28;20192;-60
2023/07/20 07:25:14;;;;;;;3.92;2.08;;;26.80;56.20;;;;;;4959214;28;20349;-58
2023/07/20 07:27:39;;;;;;;3.75;1.90;;;26.80;56.00;;;;;;4956929;28;20043;-58
2023/07/20 07:30:06;;;;;;;2.97;1.90;;;26.80;56.00;;;;;;4967528;28;20029;-59
2023/07/20 07:32:31;;;;;;;2.38;2.03;;;26.70;55.90;;;;;;4962324;28;21356;-56
2023/07/20 07:35:00;;;;;;;3.63;2.00;;;26.70;55.90;;;;;;4960498;28;20031;-57
2023/07/20 07:37:26;;;;;;;2.50;2.08;;;26.70;56.10;;;;;;4970572;28;20074;-55
2023/07/20 07:39:51;;;;;;;2.67;2.20;;;26.70;56.30;;;;;;4960039;28;20387;-58
2023/07/20 07:42:18;;;;;;;2.47;2.17;;;26.70;56.00;;;;;;4962156;28;20026;-56
2023/07/20 07:44:44;;;;;;;2.83;2.20;;;26.70;56.10;;;;;;4963525;28;20045;-59
2023/07/20 07:47:10;;;;;;;2.20;2.00;;;26.70;56.20;;;;;;4964198;28;20031;-58
2023/07/20 07:49:35;;;;;;;2.15;2.05;;;26.70;56.40;;;;;;4970365;28;21454;-57
2023/07/20 07:52:04;;;;;;;3.75;2.33;;;26.70;56.60;;;;;;4957836;28;20030;-57
2023/07/20 07:54:29;;;;;;;2.42;2.05;;;26.70;56.50;;;;;;4959110;28;20050;-58
2023/07/20 07:56:56;;;;;;;3.42;2.40;;;26.70;56.60;;;;;;4957743;28;20059;-58
2023/07/20 07:59:21;;;;;;;3.08;2.20;;;26.70;56.40;;;;;;4955368;28;20105;-59
2023/07/20 08:01:47;;;;;;;5.15;2.30;;;26.60;56.30;;;;;;4960492;28;20043;-56
2023/07/20 08:04:13;;;;;;;2.53;1.98;;;26.60;56.10;;;;;;4961706;28;20554;-57
2023/07/20 08:06:39;;;;;;;2.90;2.00;;;26.60;56.20;;;;;;4959855;28;21430;-58
2023/07/20 08:09:04;;;;;;;2.08;1.83;;;26.60;55.70;;;;;;4960157;28;20054;-57
2023/07/20 08:11:32;;;;;;;2.60;2.03;;;26.60;55.40;;;;;;4954659;28;20038;-59
2023/07/20 08:14:02;;;;;;;3.72;2.03;;;26.60;55.40;;;;;;4954030;28;20042;-59
2023/07/20 08:16:28;;;;;;;2.78;2.33;;;26.60;55.20;;;;;;4959725;28;20376;-57
2023/07/20 08:18:54;;;;;;;2.60;2.00;;;26.60;55.30;;;;;;4958416;28;20050;-57
2023/07/20 08:21:19;;;;;;;2.40;2.20;;;26.60;54.80;;;;;;4963589;28;20030;-59
2023/07/20 08:23:45;;;;;;;3.03;2.20;;;26.60;54.90;;;;;;4956097;28;20038;-60
2023/07/20 08:26:11;;;;;;;3.38;2.25;;;26.60;55.20;;;;;;4968524;28;20053;-59
2023/07/20 08:28:37;;;;;;;2.67;2.00;;;26.60;55.20;;;;;;4956881;28;20042;-58
2023/07/20 08:31:05;;;;;;;1.85;1.73;;;26.50;55.20;;;;;;4960574;28;20034;-59
2023/07/20 08:33:33;;;;;;;1.98;1.88;;;26.50;55.20;;;;;;4952320;28;20038;-58
2023/07/20 08:36:00;;;;;;;3.60;2.00;;;26.50;55.10;;;;;;4956262;28;20511;-56
2023/07/20 08:38:26;;;;;;;2.17;1.98;;;26.50;54.70;;;;;;4961190;28;20062;-62
2023/07/20 08:40:54;;;;;;;2.75;2.00;;;26.50;55.00;;;;;;4961862;28;20023;-59
2023/07/20 08:43:23;;;;;;;2.03;1.75;;;26.40;55.40;;;;;;4957431;28;20031;-59
2023/07/20 08:45:51;;;;;;;2.70;2.00;;;26.40;55.40;;;;;;4956909;28;20058;-59
2023/07/20 08:48:20;;;;;;;4.47;2.13;;;26.40;55.10;;;;;;4956958;28;20035;-59
2023/07/20 08:50:46;;;;;;;2.30;2.10;;;26.40;55.40;;;;;;4958228;28;20034;-59
2023/07/20 08:53:13;;;;;;;2.40;2.10;;;26.40;55.00;;;;;;4955765;28;20094;-59
2023/07/20 08:55:40;;;;;;;3.33;2.22;;;26.40;55.20;;;;;;4960376;28;20031;-59
2023/07/20 08:58:11;;;;;;;3.10;2.40;;;26.40;55.10;;;;;;4961089;28;20035;-59
2023/07/20 09:00:37;;;;;;;3.22;2.03;;;26.40;55.50;;;;;;4957655;28;20035;-59
2023/07/20 09:03:03;;;;;;;4.72;2.58;;;26.40;55.80;;;;;;4949272;28;20054;-58
2023/07/20 09:05:29;;;;;;;3.10;2.22;;;26.40;55.60;;;;;;4951403;28;20078;-58
2023/07/20 09:07:55;;;;;;;7.10;2.00;;;26.40;55.50;;;;;;4961122;28;20027;-61
2023/07/20 09:10:22;;;;;;;3.30;2.28;;;26.40;55.40;;;;;;4955968;28;20035;-60
2023/07/20 09:12:48;;;;;;;2.80;2.13;;;26.40;55.00;;;;;;4954205;28;20031;-60
2023/07/20 09:15:14;;;;;;;2.55;2.15;;;26.30;55.00;;;;;;4956346;28;20050;-61
2023/07/20 09:17:46;;;;;;;2.78;2.10;;;26.30;54.70;;;;;;4956563;28;20034;-61
2023/07/20 09:20:14;;;;;;;2.88;2.30;;;26.30;54.50;;;;;;4957051;28;20035;-61
2023/07/20 09:22:39;;;;;;;5.72;2.22;;;26.20;54.80;;;;;;4946838;28;20027;-58
2023/07/20 09:25:15;;;;;;;2.90;2.42;;;26.20;55.10;;;;;;4956101;28;20480;-58
2023/07/20 09:27:46;;;;;;;4.03;2.35;;;26.20;55.40;;;;;;4957677;28;20063;-59
2023/07/20 09:30:14;;;;;;;2.67;2.40;;;26.20;55.50;;;;;;4958343;28;20074;-60
2023/07/20 09:32:47;;;;;;;2.35;1.80;;;26.20;55.40;;;;;;4952571;28;20030;-59
2023/07/20 09:35:22;;;;;;;2.17;1.92;;;26.20;54.90;;;;;;4954699;28;21666;-59
2023/07/20 09:37:59;;;;;;;3.05;2.17;;;26.20;54.70;;;;;;4958512;28;20059;-57
2023/07/20 09:40:26;;;;;;;3.13;2.15;;;26.10;53.70;;;;;;4952041;28;20023;-58
2023/07/20 09:42:59;;;;;;;2.25;1.88;;;26.10;53.40;;;;;;4960779;28;20380;-60
2023/07/20 09:45:33;;;;;;;5.47;2.70;;;26.10;53.10;;;;;;4958084;28;20446;-58
2023/07/20 09:48:09;;;;;;;2.63;1.90;;;26.10;52.70;;;;;;4948773;28;20039;-57
2023/07/20 09:50:51;;;;;;;3.05;1.88;;;26.10;52.70;;;;;;4955572;28;20035;-59
2023/07/20 09:53:18;;;;;;;1.85;1.73;;;26.10;52.40;;;;;;4951658;28;20045;-61
2023/07/20 09:55:50;;;;;;;3.30;1.85;;;26.10;52.40;;;;;;4957187;28;20125;-57
2023/07/20 09:58:16;;;;;;;2.63;2.00;;;26.10;52.50;;;;;;4950882;28;20122;-59
2023/07/20 10:00:46;;;;;;;3.63;1.80;;;26.10;52.50;;;;;;4957301;28;20052;-59
2023/07/20 10:03:16;;;;;;;2.35;2.15;;;26.10;52.90;;;;;;4954123;28;20388;-58
2023/07/20 10:05:46;;;;;;;4.03;1.92;;;26.10;53.10;;;;;;4952250;28;20307;-59
2023/07/20 10:08:14;;;;;;;2.10;1.90;;;26.10;53.20;;;;;;4951456;28;20049;-59
2023/07/20 10:10:44;;;;;;;3.83;2.40;;;26.10;53.90;;;;;;4961183;28;20130;-57
2023/07/20 10:13:17;;;;;;;4.43;3.35;;;26.10;54.20;;;;;;4949749;28;20039;-60
2023/07/20 10:15:55;;;;;;;4.20;2.78;;;26.00;54.30;;;;;;4959187;28;20099;-62
2023/07/20 10:18:53;;;;;;;2.67;2.47;;;26.00;54.30;;;;;;4948636;28;20491;-58
2023/07/20 10:21:22;;;;;;;3.90;2.47;;;26.00;54.90;;;;;;4936953;28;20050;-59
2023/07/20 10:23:48;;;;;;;3.08;2.20;;;25.90;54.80;;;;;;4956215;28;20046;-57
2023/07/20 10:26:15;;;;;;;3.78;2.55;;;25.90;55.10;;;;;;4954480;28;20031;-60
2023/07/20 10:28:41;;;;;;;3.75;2.90;;;25.90;55.20;;;;;;4961254;28;20034;-61
2023/07/20 10:31:12;;;;;;;3.70;2.85;;;25.90;55.40;;;;;;4959936;28;20026;-60
2023/07/20 10:33:38;;;;;;;3.05;2.65;;;25.80;55.60;;;;;;4958790;28;20027;-58
2023/07/20 10:36:05;;;;;;;3.60;2.70;;;25.80;56.00;;;;;;4959938;28;20065;-59
2023/07/20 10:38:46;;;;;;;2.15;2.00;;;25.80;56.10;;;;;;4954739;28;20196;-58
2023/07/20 10:41:34;;;;;;;2.88;2.20;;;25.80;56.20;;;;;;4955885;28;20058;-59
2023/07/20 10:44:10;;;;;;;2.40;2.20;;;25.70;56.30;;;;;;4961589;28;20031;-59
2023/07/20 10:46:38;;;;;;;2.28;2.08;;;25.70;56.60;;;;;;4953529;28;20027;-59
2023/07/20 10:49:09;;;;;;;3.03;2.33;;;25.70;56.50;;;;;;4962551;28;20522;-61
2023/07/20 10:51:46;;;;;;;5.20;2.53;;;25.70;56.50;;;;;;4960465;28;20031;-61
2023/07/20 10:54:17;;;;;;;3.63;2.10;;;25.70;56.90;;;;;;4959575;28;20039;-60
2023/07/20 10:56:47;;;;;;;2.25;2.05;;;25.70;56.70;;;;;;4952881;28;20509;-61
2023/07/20 10:59:19;;;;;;;2.72;2.10;;;25.70;56.80;;;;;;4957746;28;20085;-58
2023/07/20 11:01:47;;;;;;;2.42;2.22;;;25.70;56.80;;;;;;4959555;28;20094;-59
2023/07/20 11:04:12;;;;;;;2.25;2.08;;;25.70;57.10;;;;;;4959600;28;20066;-59
2023/07/20 11:06:43;;;;;;;2.15;1.95;;;25.70;56.80;;;;;;4959087;28;20804;-59
2023/07/20 11:09:16;;;;;;;3.38;2.20;;;25.70;56.60;;;;;;4959749;28;20895;-61
2023/07/20 11:11:47;;;;;;;3.20;2.47;;;25.70;56.70;;;;;;4956705;28;20050;-60
2023/07/20 11:14:23;;;;;;;2.17;1.98;;;25.70;57.10;;;;;;4965505;28;21354;-60
2023/07/20 11:16:51;;;;;;;2.45;2.20;;;25.70;57.10;;;;;;4955698;28;20031;-60
2023/07/20 11:19:26;;;;;;;2.25;2.13;;;25.70;57.10;;;;;;4956324;28;20038;-60
2023/07/20 11:21:54;;;;;;;4.63;2.90;;;25.70;57.50;;;;;;4961187;28;20474;-61
2023/07/20 11:24:20;;;;;;;3.80;2.33;;;25.70;57.70;;;;;;4961055;28;20034;-62
2023/07/20 11:26:49;;;;;;;3.05;2.40;;;25.70;57.80;;;;;;4957273;28;20031;-60
2023/07/20 11:29:16;;;;;;;2.95;2.65;;;25.80;58.10;;;;;;4963291;28;20038;-61
2023/07/20 11:31:43;;;;;;;4.95;3.00;;;25.70;58.50;;;;;;4962382;28;20054;-59
2023/07/20 11:34:12;;;;;;;3.63;2.85;;;25.80;58.70;;;;;;4962562;28;20043;-61
2023/07/20 11:36:42;;;;;;;3.30;3.00;;;25.80;59.20;;;;;;4956425;28;20086;-59
2023/07/20 11:39:09;;;;;;;3.03;2.72;;;25.70;59.30;;;;;;4955293;28;20030;-62
2023/07/20 11:41:35;;;;;;;4.55;2.92;;;25.70;59.60;;;;;;4956926;28;20051;-62
2023/07/20 11:44:01;;;;;;;3.60;3.13;;;25.70;60.00;;;;;;4961513;28;20035;-60
2023/07/20 11:46:29;;;;;;;4.10;3.22;;;25.80;60.50;;;;;;4957558;28;20538;-58
2023/07/20 11:48:59;;;;;;;4.60;3.40;;;25.70;60.40;;;;;;4961652;28;20027;-58
2023/07/20 11:51:28;;;;;;;4.82;3.10;;;25.70;60.80;;;;;;4960440;28;21550;-60
2023/07/20 11:53:54;;;;;;;6.93;3.60;;;25.70;60.80;;;;;;4956099;28;20049;-60
2023/07/20 11:56:20;;;;;;;5.63;3.70;;;25.70;60.90;;;;;;4954270;28;20031;-61
2023/07/20 11:58:46;;;;;;;3.90;3.42;;;25.70;61.40;;;;;;4957102;28;20538;-60
2023/07/20 12:01:15;;;;;;;4.32;3.60;;;25.70;61.30;;;;;;4962152;28;20086;-60
2023/07/20 12:03:44;;;;;;;4.68;3.38;;;25.70;61.70;;;;;;4963440;28;20034;-61
2023/07/20 12:06:10;;;;;;;5.20;2.88;;;25.70;61.50;;;;;;4957800;28;20027;-61
2023/07/20 12:08:44;;;;;;;6.05;3.00;;;25.70;61.50;;;;;;4960917;28;20031;-61
2023/07/20 12:11:10;;;;;;;5.47;3.58;;;25.70;61.80;;;;;;4952136;28;20390;-60
2023/07/20 12:13:44;;;;;;;3.42;3.13;;;25.70;61.90;;;;;;4956184;28;20038;-61
2023/07/20 12:16:14;;;;;;;4.63;2.97;;;25.70;62.00;;;;;;4961167;28;20111;-63
2023/07/20 12:18:41;;;;;;;4.40;3.60;;;25.70;62.20;;;;;;4975259;28;20050;-61
2023/07/20 12:21:08;;;;;;;6.13;3.78;;;25.60;62.20;;;;;;4967430;28;20035;-60
2023/07/20 12:23:41;;;;;;;5.90;3.50;;;25.70;62.70;;;;;;4960662;28;20104;-58
2023/07/20 12:26:09;;;;;;;6.65;3.67;;;25.60;62.80;;;;;;4963699;28;20027;-59
2023/07/20 12:28:39;;;;;;;5.68;3.80;;;25.60;62.80;;;;;;4953192;28;20074;-60
2023/07/20 12:31:06;;;;;;;5.13;4.05;;;25.60;63.00;;;;;;4952683;28;20491;-61
2023/07/20 12:33:31;;;;;;;5.68;4.10;;;25.60;63.30;;;;;;4959260;28;20034;-58
2023/07/20 12:35:59;;;;;;;7.22;4.40;;;25.60;63.30;;;;;;4951792;28;20548;-58
2023/07/20 12:38:25;;;;;;;6.13;3.70;;;25.60;63.20;;;;;;4958811;28;20027;-59
2023/07/20 12:40:51;;;;;;;5.43;4.10;;;25.60;63.50;;;;;;4961174;28;20387;-58
2023/07/20 12:43:16;;;;;;;7.18;4.40;;;25.60;63.70;;;;;;4957571;28;20038;-58
2023/07/20 12:45:43;;;;;;;5.18;3.67;;;25.60;63.70;;;;;;4959716;28;20035;-60
2023/07/20 12:48:08;;;;;;;4.68;3.65;;;25.60;63.90;;;;;;4952269;28;20416;-62
2023/07/20 12:50:34;;;;;;;5.63;3.70;;;25.60;64.00;;;;;;4958520;28;20043;-62